sensor_id;sensor_type;location;lat;lon;timestamp;P1;durP1;ratioP1;P2;durP2;ratioP2
42972;SDS011;28610;51.214;6.962;2023-04-06T00:01:25;25.47;;;12.87;;
42972;SDS011;28610;51.214;6.962;2023-04-06T00:04:11;20.70;;;12.40;;
42972;SDS011;28610;51.214;6.962;2023-04-06T00:06:57;25.40;;;12.90;;
42972;SDS011;28610;51.214;6.962;2023-04-06T00:09:43;22.10;;;12.57;;
42972;SDS011;28610;51.214;6.962;2023-04-06T00:12:28;22.60;;;12.67;;
42972;SDS011;28610;51.214;6.962;2023-04-06T00:15:14;24.63;;;12.50;;
42972;SDS011;28610;51.214;6.962;2023-04-06T00:18:02;20.73;;;12.13;;
42972;SDS011;28610;51.214;6.962;2023-04-06T00:20:47;23.20;;;13.07;;
42972;SDS011;28610;51.214;6.962;2023-04-06T00:23:34;24.70;;;12.33;;
42972;SDS011;28610;51.214;6.962;2023-04-06T00:26:20;25.50;;;12.70;;
42972;SDS011;28610;51.214;6.962;2023-04-06T00:29:05;23.83;;;12.47;;
42972;SDS011;28610;51.214;6.962;2023-04-06T00:31:51;20.27;;;11.93;;
42972;SDS011;28610;51.214;6.962;2023-04-06T00:34:38;22.63;;;12.17;;
42972;SDS011;28610;51.214;6.962;2023-04-06T00:37:24;24.27;;;12.33;;
42972;SDS011;28610;51.214;6.962;2023-04-06T00:40:10;23.30;;;12.17;;
42972;SDS011;28610;51.214;6.962;2023-04-06T00:42:55;20.87;;;12.20;;
42972;SDS011;28610;51.214;6.962;2023-04-06T00:45:41;21.03;;;11.83;;
42972;SDS011;28610;51.214;6.962;2023-04-06T00:48:27;22.33;;;12.60;;
42972;SDS011;28610;51.214;6.962;2023-04-06T00:51:15;22.63;;;12.47;;
42972;SDS011;28610;51.214;6.962;2023-04-06T00:54:01;24.37;;;12.70;;
42972;SDS011;28610;51.214;6.962;2023-04-06T00:56:47;22.87;;;12.43;;
42972;SDS011;28610;51.214;6.962;2023-04-06T00:59:33;22.47;;;11.90;;
42972;SDS011;28610;51.214;6.962;2023-04-06T01:02:19;23.30;;;12.40;;
42972;SDS011;28610;51.214;6.962;2023-04-06T01:05:05;20.23;;;11.53;;
42972;SDS011;28610;51.214;6.962;2023-04-06T01:07:52;20.53;;;12.17;;
42972;SDS011;28610;51.214;6.962;2023-04-06T01:10:38;23.00;;;12.47;;
42972;SDS011;28610;51.214;6.962;2023-04-06T01:13:24;21.83;;;12.10;;
42972;SDS011;28610;51.214;6.962;2023-04-06T01:16:09;19.83;;;11.67;;
42972;SDS011;28610;51.214;6.962;2023-04-06T01:18:55;24.93;;;12.90;;
42972;SDS011;28610;51.214;6.962;2023-04-06T01:21:41;22.07;;;12.67;;
42972;SDS011;28610;51.214;6.962;2023-04-06T01:24:29;20.60;;;11.90;;
42972;SDS011;28610;51.214;6.962;2023-04-06T01:27:15;23.13;;;13.07;;
42972;SDS011;28610;51.214;6.962;2023-04-06T01:30:00;20.50;;;12.47;;
42972;SDS011;28610;51.214;6.962;2023-04-06T01:32:47;25.00;;;12.50;;
42972;SDS011;28610;51.214;6.962;2023-04-06T01:35:33;26.17;;;12.40;;
42972;SDS011;28610;51.214;6.962;2023-04-06T01:38:18;23.97;;;12.70;;
42972;SDS011;28610;51.214;6.962;2023-04-06T01:41:05;24.40;;;13.20;;
42972;SDS011;28610;51.214;6.962;2023-04-06T01:43:51;19.30;;;12.07;;
42972;SDS011;28610;51.214;6.962;2023-04-06T01:46:38;21.40;;;12.83;;
42972;SDS011;28610;51.214;6.962;2023-04-06T01:49:24;22.80;;;11.83;;
42972;SDS011;28610;51.214;6.962;2023-04-06T01:52:09;23.03;;;11.77;;
42972;SDS011;28610;51.214;6.962;2023-04-06T01:54:55;22.47;;;11.60;;
42972;SDS011;28610;51.214;6.962;2023-04-06T01:57:42;17.90;;;10.90;;
42972;SDS011;28610;51.214;6.962;2023-04-06T02:00:28;17.87;;;11.23;;
42972;SDS011;28610;51.214;6.962;2023-04-06T02:03:14;17.67;;;11.37;;
42972;SDS011;28610;51.214;6.962;2023-04-06T02:06:00;17.20;;;10.47;;
42972;SDS011;28610;51.214;6.962;2023-04-06T02:08:45;19.60;;;10.87;;
42972;SDS011;28610;51.214;6.962;2023-04-06T02:11:31;17.23;;;10.27;;
42972;SDS011;28610;51.214;6.962;2023-04-06T02:14:18;17.67;;;10.40;;
42972;SDS011;28610;51.214;6.962;2023-04-06T02:17:04;17.43;;;10.27;;
42972;SDS011;28610;51.214;6.962;2023-04-06T02:19:49;16.90;;;10.37;;
42972;SDS011;28610;51.214;6.962;2023-04-06T02:22:35;14.90;;;9.93;;
42972;SDS011;28610;51.214;6.962;2023-04-06T02:25:21;16.77;;;9.73;;
42972;SDS011;28610;51.214;6.962;2023-04-06T02:28:06;19.13;;;10.50;;
42972;SDS011;28610;51.214;6.962;2023-04-06T02:30:53;18.27;;;10.43;;
42972;SDS011;28610;51.214;6.962;2023-04-06T02:33:39;16.30;;;10.30;;
42972;SDS011;28610;51.214;6.962;2023-04-06T02:36:25;17.97;;;10.47;;
42972;SDS011;28610;51.214;6.962;2023-04-06T02:39:17;16.47;;;10.57;;
42972;SDS011;28610;51.214;6.962;2023-04-06T02:42:10;20.70;;;10.53;;
42972;SDS011;28610;51.214;6.962;2023-04-06T02:45:02;17.37;;;10.57;;
42972;SDS011;28610;51.214;6.962;2023-04-06T02:47:56;17.27;;;9.97;;
42972;SDS011;28610;51.214;6.962;2023-04-06T02:50:49;17.67;;;10.80;;
42972;SDS011;28610;51.214;6.962;2023-04-06T02:53:41;19.23;;;11.07;;
42972;SDS011;28610;51.214;6.962;2023-04-06T02:56:33;18.13;;;10.50;;
42972;SDS011;28610;51.214;6.962;2023-04-06T02:59:25;18.40;;;10.17;;
42972;SDS011;28610;51.214;6.962;2023-04-06T03:02:17;25.07;;;10.90;;
42972;SDS011;28610;51.214;6.962;2023-04-06T03:05:11;19.53;;;10.87;;
42972;SDS011;28610;51.214;6.962;2023-04-06T03:08:04;16.33;;;10.40;;
42972;SDS011;28610;51.214;6.962;2023-04-06T03:10:57;15.40;;;10.10;;
42972;SDS011;28610;51.214;6.962;2023-04-06T03:13:50;14.33;;;9.77;;
42972;SDS011;28610;51.214;6.962;2023-04-06T03:16:42;17.07;;;10.00;;
42972;SDS011;28610;51.214;6.962;2023-04-06T03:19:35;17.10;;;10.33;;
42972;SDS011;28610;51.214;6.962;2023-04-06T03:22:28;16.33;;;10.13;;
42972;SDS011;28610;51.214;6.962;2023-04-06T03:25:20;18.13;;;10.47;;
42972;SDS011;28610;51.214;6.962;2023-04-06T03:28:12;15.57;;;10.23;;
42972;SDS011;28610;51.214;6.962;2023-04-06T03:31:05;15.23;;;9.60;;
42972;SDS011;28610;51.214;6.962;2023-04-06T03:33:58;17.50;;;9.63;;
42972;SDS011;28610;51.214;6.962;2023-04-06T03:36:50;16.53;;;9.83;;
42972;SDS011;28610;51.214;6.962;2023-04-06T03:39:43;15.93;;;10.27;;
42972;SDS011;28610;51.214;6.962;2023-04-06T03:42:36;17.07;;;10.43;;
42972;SDS011;28610;51.214;6.962;2023-04-06T03:45:28;17.20;;;10.00;;
42972;SDS011;28610;51.214;6.962;2023-04-06T03:48:19;17.93;;;10.00;;
42972;SDS011;28610;51.214;6.962;2023-04-06T03:51:12;18.03;;;10.50;;
42972;SDS011;28610;51.214;6.962;2023-04-06T03:54:05;18.60;;;11.17;;
42972;SDS011;28610;51.214;6.962;2023-04-06T03:56:58;20.80;;;10.40;;
42972;SDS011;28610;51.214;6.962;2023-04-06T03:59:51;17.10;;;10.27;;
42972;SDS011;28610;51.214;6.962;2023-04-06T04:02:43;20.07;;;10.50;;
42972;SDS011;28610;51.214;6.962;2023-04-06T04:05:36;16.23;;;10.50;;
42972;SDS011;28610;51.214;6.962;2023-04-06T04:08:29;19.03;;;10.50;;
42972;SDS011;28610;51.214;6.962;2023-04-06T04:11:22;18.70;;;10.43;;
42972;SDS011;28610;51.214;6.962;2023-04-06T04:14:16;16.80;;;9.87;;
42972;SDS011;28610;51.214;6.962;2023-04-06T04:17:09;15.63;;;10.10;;
42972;SDS011;28610;51.214;6.962;2023-04-06T04:20:02;16.80;;;9.80;;
42972;SDS011;28610;51.214;6.962;2023-04-06T04:22:55;14.93;;;9.83;;
42972;SDS011;28610;51.214;6.962;2023-04-06T04:25:48;14.77;;;9.50;;
42972;SDS011;28610;51.214;6.962;2023-04-06T04:28:41;15.50;;;9.70;;
42972;SDS011;28610;51.214;6.962;2023-04-06T04:31:34;17.23;;;9.87;;
42972;SDS011;28610;51.214;6.962;2023-04-06T04:37:56;16.57;;;9.67;;
42972;SDS011;28610;51.214;6.962;2023-04-06T04:40:49;18.70;;;9.80;;
42972;SDS011;28610;51.214;6.962;2023-04-06T04:43:42;15.40;;;10.13;;
42972;SDS011;28610;51.214;6.962;2023-04-06T04:46:35;16.10;;;9.57;;
42972;SDS011;28610;51.214;6.962;2023-04-06T04:49:28;14.43;;;9.60;;
42972;SDS011;28610;51.214;6.962;2023-04-06T04:52:20;16.37;;;9.57;;
42972;SDS011;28610;51.214;6.962;2023-04-06T04:55:13;16.70;;;9.10;;
42972;SDS011;28610;51.214;6.962;2023-04-06T04:58:06;18.80;;;9.63;;
42972;SDS011;28610;51.214;6.962;2023-04-06T05:04:29;16.87;;;9.23;;
42972;SDS011;28610;51.214;6.962;2023-04-06T05:07:22;16.73;;;9.43;;
42972;SDS011;28610;51.214;6.962;2023-04-06T05:10:14;16.60;;;10.03;;
42972;SDS011;28610;51.214;6.962;2023-04-06T05:13:07;18.53;;;9.57;;
42972;SDS011;28610;51.214;6.962;2023-04-06T05:15:59;16.13;;;9.57;;
42972;SDS011;28610;51.214;6.962;2023-04-06T05:18:51;19.90;;;9.67;;
42972;SDS011;28610;51.214;6.962;2023-04-06T05:21:45;14.63;;;9.40;;
42972;SDS011;28610;51.214;6.962;2023-04-06T05:24:38;14.23;;;9.40;;
42972;SDS011;28610;51.214;6.962;2023-04-06T05:27:30;14.17;;;9.47;;
42972;SDS011;28610;51.214;6.962;2023-04-06T05:37:17;14.00;;;9.43;;
42972;SDS011;28610;51.214;6.962;2023-04-06T05:40:10;15.40;;;9.40;;
42972;SDS011;28610;51.214;6.962;2023-04-06T05:43:02;15.47;;;9.50;;
42972;SDS011;28610;51.214;6.962;2023-04-06T05:45:55;17.63;;;9.67;;
42972;SDS011;28610;51.214;6.962;2023-04-06T05:48:47;17.27;;;9.47;;
42972;SDS011;28610;51.214;6.962;2023-04-06T05:51:39;15.53;;;9.73;;
42972;SDS011;28610;51.214;6.962;2023-04-06T05:54:34;13.57;;;9.17;;
42972;SDS011;28610;51.214;6.962;2023-04-06T05:57:27;15.63;;;9.40;;
42972;SDS011;28610;51.214;6.962;2023-04-06T06:00:20;15.63;;;9.27;;
42972;SDS011;28610;51.214;6.962;2023-04-06T06:03:12;14.17;;;9.07;;
42972;SDS011;28610;51.214;6.962;2023-04-06T06:06:04;17.63;;;9.50;;
42972;SDS011;28610;51.214;6.962;2023-04-06T06:08:57;17.13;;;9.10;;
42972;SDS011;28610;51.214;6.962;2023-04-06T06:11:52;15.10;;;9.40;;
42972;SDS011;28610;51.214;6.962;2023-04-06T06:14:45;14.20;;;9.20;;
42972;SDS011;28610;51.214;6.962;2023-04-06T06:17:37;13.73;;;8.70;;
42972;SDS011;28610;51.214;6.962;2023-04-06T06:20:30;13.37;;;9.07;;
42972;SDS011;28610;51.214;6.962;2023-04-06T06:23:23;16.00;;;8.90;;
42972;SDS011;28610;51.214;6.962;2023-04-06T06:26:16;16.33;;;8.97;;
42972;SDS011;28610;51.214;6.962;2023-04-06T06:29:09;15.73;;;9.07;;
42972;SDS011;28610;51.214;6.962;2023-04-06T06:32:02;15.67;;;8.90;;
42972;SDS011;28610;51.214;6.962;2023-04-06T06:34:55;14.67;;;8.97;;
42972;SDS011;28610;51.214;6.962;2023-04-06T06:37:47;14.43;;;9.00;;
42972;SDS011;28610;51.214;6.962;2023-04-06T06:40:39;15.37;;;8.80;;
42972;SDS011;28610;51.214;6.962;2023-04-06T06:43:31;15.53;;;8.87;;
42972;SDS011;28610;51.214;6.962;2023-04-06T06:46:24;15.13;;;8.30;;
42972;SDS011;28610;51.214;6.962;2023-04-06T06:49:17;15.67;;;8.67;;
42972;SDS011;28610;51.214;6.962;2023-04-06T06:52:09;14.57;;;9.10;;
42972;SDS011;28610;51.214;6.962;2023-04-06T06:55:01;15.37;;;8.60;;
42972;SDS011;28610;51.214;6.962;2023-04-06T06:57:54;16.57;;;8.23;;
42972;SDS011;28610;51.214;6.962;2023-04-06T07:00:46;15.63;;;8.80;;
42972;SDS011;28610;51.214;6.962;2023-04-06T07:03:40;15.47;;;8.90;;
42972;SDS011;28610;51.214;6.962;2023-04-06T07:06:33;16.73;;;8.13;;
42972;SDS011;28610;51.214;6.962;2023-04-06T07:09:26;15.70;;;8.83;;
42972;SDS011;28610;51.214;6.962;2023-04-06T07:12:18;15.53;;;8.40;;
42972;SDS011;28610;51.214;6.962;2023-04-06T07:15:11;15.43;;;8.70;;
42972;SDS011;28610;51.214;6.962;2023-04-06T07:18:04;14.87;;;8.37;;
42972;SDS011;28610;51.214;6.962;2023-04-06T07:20:57;12.97;;;8.40;;
42972;SDS011;28610;51.214;6.962;2023-04-06T07:23:50;15.17;;;8.33;;
42972;SDS011;28610;51.214;6.962;2023-04-06T07:26:42;14.97;;;8.77;;
42972;SDS011;28610;51.214;6.962;2023-04-06T07:29:35;14.63;;;7.90;;
42972;SDS011;28610;51.214;6.962;2023-04-06T07:32:27;15.70;;;8.90;;
42972;SDS011;28610;51.214;6.962;2023-04-06T07:35:20;16.37;;;8.70;;
42972;SDS011;28610;51.214;6.962;2023-04-06T07:38:14;14.80;;;8.60;;
42972;SDS011;28610;51.214;6.962;2023-04-06T07:41:07;13.30;;;8.30;;
42972;SDS011;28610;51.214;6.962;2023-04-06T07:44:00;17.67;;;8.53;;
42972;SDS011;28610;51.214;6.962;2023-04-06T07:46:52;15.37;;;8.80;;
42972;SDS011;28610;51.214;6.962;2023-04-06T07:49:44;17.13;;;9.20;;
42972;SDS011;28610;51.214;6.962;2023-04-06T07:52:38;13.87;;;8.50;;
42972;SDS011;28610;51.214;6.962;2023-04-06T07:55:31;16.33;;;8.73;;
42972;SDS011;28610;51.214;6.962;2023-04-06T07:58:23;15.03;;;8.77;;
42972;SDS011;28610;51.214;6.962;2023-04-06T08:01:16;16.80;;;9.30;;
42972;SDS011;28610;51.214;6.962;2023-04-06T08:35:34;16.43;;;9.30;;
42972;SDS011;28610;51.214;6.962;2023-04-06T08:38:26;16.47;;;9.50;;
42972;SDS011;28610;51.214;6.962;2023-04-06T08:41:13;20.13;;;10.00;;
42972;SDS011;28610;51.214;6.962;2023-04-06T08:44:00;18.37;;;9.73;;
42972;SDS011;28610;51.214;6.962;2023-04-06T08:46:47;17.73;;;8.97;;
42972;SDS011;28610;51.214;6.962;2023-04-06T08:49:34;15.63;;;9.23;;
42972;SDS011;28610;51.214;6.962;2023-04-06T08:52:24;18.37;;;10.23;;
42972;SDS011;28610;51.214;6.962;2023-04-06T08:55:10;20.43;;;9.93;;
42972;SDS011;28610;51.214;6.962;2023-04-06T08:57:56;19.60;;;10.23;;
42972;SDS011;28610;51.214;6.962;2023-04-06T09:00:42;28.27;;;10.07;;
42972;SDS011;28610;51.214;6.962;2023-04-06T09:03:28;19.33;;;10.60;;
42972;SDS011;28610;51.214;6.962;2023-04-06T09:06:14;20.50;;;10.47;;
42972;SDS011;28610;51.214;6.962;2023-04-06T09:09:01;21.47;;;10.00;;
42972;SDS011;28610;51.214;6.962;2023-04-06T09:11:48;20.67;;;10.60;;
42972;SDS011;28610;51.214;6.962;2023-04-06T09:14:34;20.87;;;11.03;;
42972;SDS011;28610;51.214;6.962;2023-04-06T09:17:21;20.17;;;11.00;;
42972;SDS011;28610;51.214;6.962;2023-04-06T09:20:07;18.43;;;10.03;;
42972;SDS011;28610;51.214;6.962;2023-04-06T09:22:53;24.40;;;11.27;;
42972;SDS011;28610;51.214;6.962;2023-04-06T09:25:41;21.87;;;11.77;;
42972;SDS011;28610;51.214;6.962;2023-04-06T09:28:26;22.33;;;11.57;;
42972;SDS011;28610;51.214;6.962;2023-04-06T09:31:13;28.13;;;12.00;;
42972;SDS011;28610;51.214;6.962;2023-04-06T09:33:59;27.93;;;11.87;;
42972;SDS011;28610;51.214;6.962;2023-04-06T09:36:51;22.73;;;11.37;;
42972;SDS011;28610;51.214;6.962;2023-04-06T09:39:43;24.03;;;11.33;;
42972;SDS011;28610;51.214;6.962;2023-04-06T09:42:38;22.23;;;11.87;;
42972;SDS011;28610;51.214;6.962;2023-04-06T09:45:32;25.63;;;13.00;;
42972;SDS011;28610;51.214;6.962;2023-04-06T09:48:24;25.73;;;12.87;;
42972;SDS011;28610;51.214;6.962;2023-04-06T09:51:17;28.90;;;13.40;;
42972;SDS011;28610;51.214;6.962;2023-04-06T09:54:11;25.90;;;13.23;;
42972;SDS011;28610;51.214;6.962;2023-04-06T09:57:07;25.00;;;12.80;;
42972;SDS011;28610;51.214;6.962;2023-04-06T10:00:03;24.37;;;12.77;;
42972;SDS011;28610;51.214;6.962;2023-04-06T10:03:01;25.13;;;12.00;;
42972;SDS011;28610;51.214;6.962;2023-04-06T10:05:57;23.40;;;11.93;;
42972;SDS011;28610;51.214;6.962;2023-04-06T10:08:50;22.80;;;12.60;;
42972;SDS011;28610;51.214;6.962;2023-04-06T10:11:44;26.60;;;13.33;;
42972;SDS011;28610;51.214;6.962;2023-04-06T10:14:37;26.70;;;13.00;;
42972;SDS011;28610;51.214;6.962;2023-04-06T10:17:33;25.17;;;12.27;;
42972;SDS011;28610;51.214;6.962;2023-04-06T10:20:26;24.83;;;12.80;;
42972;SDS011;28610;51.214;6.962;2023-04-06T10:23:22;24.30;;;12.40;;
42972;SDS011;28610;51.214;6.962;2023-04-06T10:26:19;23.97;;;12.40;;
42972;SDS011;28610;51.214;6.962;2023-04-06T10:29:11;23.57;;;12.20;;
42972;SDS011;28610;51.214;6.962;2023-04-06T10:32:03;25.77;;;12.27;;
42972;SDS011;28610;51.214;6.962;2023-04-06T10:35:05;22.67;;;12.33;;
42972;SDS011;28610;51.214;6.962;2023-04-06T10:38:00;25.60;;;12.50;;
42972;SDS011;28610;51.214;6.962;2023-04-06T10:40:53;23.98;;;12.20;;
42972;SDS011;28610;51.214;6.962;2023-04-06T10:43:56;23.58;;;11.20;;
42972;SDS011;28610;51.214;6.962;2023-04-06T10:46:52;25.67;;;12.50;;
42972;SDS011;28610;51.214;6.962;2023-04-06T10:50:10;26.00;;;12.43;;
42972;SDS011;28610;51.214;6.962;2023-04-06T10:53:27;31.00;;;12.53;;
42972;SDS011;28610;51.214;6.962;2023-04-06T10:56:43;25.57;;;11.57;;
42972;SDS011;28610;51.214;6.962;2023-04-06T11:00:00;23.53;;;11.40;;
42972;SDS011;28610;51.214;6.962;2023-04-06T11:03:16;25.33;;;12.37;;
42972;SDS011;28610;51.214;6.962;2023-04-06T11:06:34;25.73;;;12.33;;
42972;SDS011;28610;51.214;6.962;2023-04-06T11:09:51;26.90;;;11.97;;
42972;SDS011;28610;51.214;6.962;2023-04-06T11:13:08;27.73;;;12.50;;
42972;SDS011;28610;51.214;6.962;2023-04-06T11:16:25;27.90;;;13.20;;
42972;SDS011;28610;51.214;6.962;2023-04-06T11:19:42;28.60;;;13.27;;
42972;SDS011;28610;51.214;6.962;2023-04-06T11:22:59;28.30;;;13.43;;
42972;SDS011;28610;51.214;6.962;2023-04-06T11:26:16;28.93;;;13.10;;
42972;SDS011;28610;51.214;6.962;2023-04-06T11:29:32;29.23;;;13.40;;
42972;SDS011;28610;51.214;6.962;2023-04-06T11:32:49;30.17;;;14.57;;
42972;SDS011;28610;51.214;6.962;2023-04-06T11:36:06;28.67;;;14.10;;
42972;SDS011;28610;51.214;6.962;2023-04-06T11:39:25;24.80;;;13.10;;
42972;SDS011;28610;51.214;6.962;2023-04-06T11:42:41;28.93;;;13.60;;
42972;SDS011;28610;51.214;6.962;2023-04-06T11:46:00;27.20;;;13.60;;
42972;SDS011;28610;51.214;6.962;2023-04-06T11:49:17;29.00;;;14.57;;
42972;SDS011;28610;51.214;6.962;2023-04-06T11:52:33;30.93;;;15.47;;
42972;SDS011;28610;51.214;6.962;2023-04-06T11:55:51;28.33;;;13.63;;
42972;SDS011;28610;51.214;6.962;2023-04-06T11:59:08;26.27;;;13.73;;
